createdAt,value
2023-01-05T00:01:14.471Z,7.97
2023-01-05T00:03:42.896Z,8.27
2023-01-05T00:06:13.707Z,8.67
2023-01-05T00:08:43.062Z,8.40
2023-01-05T00:11:30.876Z,8.70
2023-01-05T00:14:16.868Z,8.60
2023-01-05T00:17:03.802Z,8.87
2023-01-05T00:19:49.829Z,9.10
2023-01-05T00:22:33.761Z,9.30
2023-01-05T00:25:11.228Z,9.63
2023-01-05T00:27:41.533Z,9.50
2023-01-05T00:30:11.149Z,9.07
2023-01-05T00:32:42.513Z,9.20
2023-01-05T00:35:12.014Z,9.30
2023-01-05T00:37:40.648Z,9.13
2023-01-05T00:40:11.137Z,9.30
2023-01-05T00:42:39.468Z,9.30
2023-01-05T00:45:09.720Z,9.43
2023-01-05T00:47:38.016Z,8.80
2023-01-05T00:50:09.813Z,8.93
2023-01-05T00:52:38.217Z,9.10
2023-01-05T00:55:07.195Z,9.10
2023-01-05T00:57:35.648Z,9.00
2023-01-05T01:00:04.541Z,8.70
2023-01-05T01:02:36.039Z,8.50
2023-01-05T01:05:08.138Z,8.57
2023-01-05T01:07:36.209Z,8.50
2023-01-05T01:10:07.212Z,8.93
2023-01-05T01:12:35.374Z,8.60
2023-01-05T01:15:03.513Z,8.50
2023-01-05T01:17:32.846Z,8.90
2023-01-05T01:20:00.947Z,8.70
2023-01-05T01:22:30.592Z,8.60
2023-01-05T01:24:58.669Z,8.53
2023-01-05T01:27:27.303Z,8.50
2023-01-05T01:29:55.482Z,8.27
2023-01-05T01:32:24.533Z,8.30
2023-01-05T01:34:52.766Z,8.30
2023-01-05T01:37:20.947Z,8.40
2023-01-05T01:39:54.893Z,8.20
2023-01-05T01:42:23.584Z,8.57
2023-01-05T01:44:58.920Z,8.30
2023-01-05T01:47:41.218Z,8.20
2023-01-05T01:50:16.455Z,8.47
2023-01-05T01:52:46.774Z,8.50
2023-01-05T01:55:16.935Z,8.60
2023-01-05T01:57:46.805Z,8.37
2023-01-05T02:00:15.828Z,8.67
2023-01-05T02:02:49.380Z,9.57
2023-01-05T02:05:23.817Z,9.70
2023-01-05T02:07:52.000Z,10.33
2023-01-05T02:10:29.283Z,9.90
2023-01-05T02:13:08.716Z,10.37
2023-01-05T02:15:45.807Z,10.37
2023-01-05T02:18:26.774Z,10.20
2023-01-05T02:21:14.919Z,10.30
2023-01-05T02:24:35.263Z,10.10
2023-01-05T02:27:42.751Z,10.50
2023-01-05T02:30:44.862Z,9.70
2023-01-05T02:33:26.888Z,9.50
2023-01-05T02:36:04.202Z,9.50
2023-01-05T02:38:39.908Z,9.00
2023-01-05T02:41:14.365Z,8.77
2023-01-05T02:43:45.532Z,8.70
2023-01-05T02:46:13.794Z,9.00
2023-01-05T02:48:45.218Z,8.63
2023-01-05T02:51:17.467Z,8.70
2023-01-05T02:53:50.928Z,8.40
2023-01-05T02:56:26.251Z,8.57
2023-01-05T02:59:00.924Z,8.47
2023-01-05T03:01:34.433Z,8.63
2023-01-05T03:04:13.598Z,8.87
2023-01-05T03:06:48.832Z,9.60
2023-01-05T03:09:26.046Z,10.20
2023-01-05T03:12:20.440Z,10.80
2023-01-05T03:14:53.800Z,11.40
2023-01-05T03:17:28.942Z,11.40
2023-01-05T03:19:59.996Z,11.40
2023-01-05T03:22:49.238Z,11.10
2023-01-05T03:25:37.356Z,10.77
2023-01-05T03:28:28.475Z,10.17
2023-01-05T03:31:19.567Z,10.70
2023-01-05T03:34:15.835Z,9.80
2023-01-05T03:36:57.467Z,8.97
2023-01-05T03:39:27.587Z,9.10
2023-01-05T03:41:58.622Z,8.37
2023-01-05T03:44:27.818Z,8.40
2023-01-05T03:46:56.180Z,8.60
2023-01-05T03:49:24.339Z,8.40
2023-01-05T03:51:54.043Z,8.67
2023-01-05T03:54:22.741Z,9.00
2023-01-05T03:56:50.944Z,9.00
2023-01-05T03:59:19.481Z,9.03
2023-01-05T04:01:49.893Z,9.33
2023-01-05T04:04:18.578Z,9.50
2023-01-05T04:06:47.319Z,10.23
2023-01-05T04:09:18.300Z,10.33
2023-01-05T04:11:47.219Z,11.03
2023-01-05T04:14:15.447Z,10.80
2023-01-05T04:16:43.728Z,11.17
2023-01-05T04:19:20.118Z,12.00
2023-01-05T04:21:52.028Z,11.97
2023-01-05T04:24:23.271Z,11.90
2023-01-05T04:26:51.364Z,12.63
2023-01-05T04:29:22.226Z,12.30
2023-01-05T04:31:51.812Z,12.80
2023-01-05T04:34:21.095Z,11.83
2023-01-05T04:36:51.344Z,11.33
2023-01-05T04:39:23.722Z,10.60
2023-01-05T04:41:52.049Z,10.30
2023-01-05T04:44:21.973Z,10.17
2023-01-05T04:46:51.379Z,10.37
2023-01-05T04:49:20.604Z,10.80
2023-01-05T04:51:51.321Z,10.90
2023-01-05T04:54:24.045Z,11.20
2023-01-05T04:56:52.844Z,11.90
2023-01-05T04:59:21.133Z,12.03
2023-01-05T05:01:50.352Z,12.53
2023-01-05T05:04:18.620Z,12.37
2023-01-05T05:06:50.324Z,13.80
2023-01-05T05:09:20.304Z,14.00
2023-01-05T05:11:51.129Z,15.93
2023-01-05T05:14:23.178Z,17.77
2023-01-05T05:16:51.361Z,18.73
2023-01-05T05:19:19.421Z,21.20
2023-01-05T05:21:47.816Z,22.90
2023-01-05T05:24:16.371Z,24.87
2023-01-05T05:26:46.546Z,26.17
2023-01-05T05:29:16.264Z,27.77
2023-01-05T05:31:44.474Z,29.10
2023-01-05T05:34:12.627Z,29.87
2023-01-05T05:36:40.696Z,31.00
2023-01-05T05:39:08.858Z,31.30
2023-01-05T05:41:37.017Z,30.97
2023-01-05T05:44:05.190Z,31.83
2023-01-05T05:46:34.640Z,32.20
2023-01-05T05:49:02.809Z,31.87
2023-01-05T05:51:31.823Z,32.33
2023-01-05T05:53:59.880Z,32.13
2023-01-05T05:56:28.031Z,32.43
2023-01-05T05:59:01.089Z,31.97
2023-01-05T06:01:30.143Z,32.93
2023-01-05T06:04:00.001Z,32.80
2023-01-05T06:06:31.742Z,33.80
2023-01-05T06:08:59.859Z,35.30
2023-01-05T06:11:27.915Z,36.17
2023-01-05T06:13:56.220Z,36.83
2023-01-05T06:16:24.431Z,37.47
2023-01-05T06:18:52.544Z,37.83
2023-01-05T06:21:22.458Z,38.23
2023-01-05T06:23:50.750Z,39.40
2023-01-05T06:26:18.824Z,38.50
2023-01-05T06:28:46.937Z,38.70
2023-01-05T06:31:15.048Z,39.23
2023-01-05T06:33:43.253Z,39.13
2023-01-05T06:36:11.321Z,39.07
2023-01-05T06:38:40.827Z,38.33
2023-01-05T06:41:08.904Z,37.67
2023-01-05T06:43:36.947Z,39.20
2023-01-05T06:46:05.461Z,30.73
2023-01-05T06:48:33.608Z,22.93
2023-01-05T06:51:01.785Z,23.10
2023-01-05T06:53:29.880Z,23.83
2023-01-05T06:55:59.412Z,27.13
2023-01-05T06:58:27.520Z,31.30
2023-01-05T07:00:55.966Z,34.60
2023-01-05T07:03:24.867Z,35.97
2023-01-05T07:05:53.529Z,37.70
2023-01-05T07:08:21.602Z,38.77
2023-01-05T07:10:49.787Z,39.67
2023-01-05T07:13:19.248Z,42.93
2023-01-05T07:15:47.402Z,41.53
2023-01-05T07:18:15.623Z,44.33
2023-01-05T07:20:43.855Z,38.60
2023-01-05T07:23:11.990Z,40.83
2023-01-05T07:25:40.224Z,40.17
2023-01-05T07:28:08.341Z,42.00
2023-01-05T07:30:37.807Z,43.70
2023-01-05T07:33:05.888Z,44.60
2023-01-05T07:35:34.266Z,46.67
2023-01-05T07:38:02.558Z,47.00
2023-01-05T07:40:30.642Z,46.97
2023-01-05T07:42:58.755Z,47.60
2023-01-05T07:45:27.010Z,46.77
2023-01-05T07:47:56.494Z,47.10
2023-01-05T07:50:24.881Z,48.23
2023-01-05T07:52:53.216Z,49.50
2023-01-05T07:55:21.423Z,49.73
2023-01-05T07:57:49.500Z,49.13
2023-01-05T08:00:17.938Z,48.97
2023-01-05T08:02:46.234Z,48.83
2023-01-05T08:05:15.993Z,47.77
2023-01-05T08:07:44.094Z,48.27
2023-01-05T08:10:30.119Z,48.50
2023-01-05T08:13:20.643Z,49.47
2023-01-05T08:15:51.766Z,51.23
2023-01-05T08:18:20.244Z,52.30
2023-01-05T08:20:54.509Z,53.37
2023-01-05T08:23:25.614Z,54.07
2023-01-05T08:25:55.214Z,54.30
2023-01-05T08:28:23.467Z,55.20
2023-01-05T08:30:51.861Z,55.37
2023-01-05T08:33:20.013Z,54.63
2023-01-05T08:35:49.059Z,54.30
2023-01-05T08:38:26.949Z,54.23
2023-01-05T08:40:58.964Z,53.87
2023-01-05T08:43:27.222Z,52.77
2023-01-05T08:45:55.345Z,51.97
2023-01-05T08:48:23.719Z,51.10
2023-01-05T08:50:51.865Z,50.20
2023-01-05T08:53:21.335Z,49.00
2023-01-05T08:55:49.915Z,48.13
2023-01-05T08:58:18.014Z,46.63
2023-01-05T09:00:46.425Z,46.87
2023-01-05T09:03:14.729Z,45.13
2023-01-05T09:05:43.090Z,43.60
2023-01-05T09:08:11.215Z,43.50
2023-01-05T09:10:40.750Z,43.77
2023-01-05T09:13:10.024Z,43.60
2023-01-05T09:15:38.183Z,42.63
2023-01-05T09:18:06.229Z,42.57
2023-01-05T09:20:39.555Z,42.17
2023-01-05T09:23:08.255Z,42.00
2023-01-05T09:25:36.619Z,41.87
2023-01-05T09:28:06.373Z,41.23
2023-01-05T09:30:41.853Z,41.80
2023-01-05T09:33:12.713Z,41.33
2023-01-05T09:35:40.964Z,40.93
2023-01-05T09:38:09.134Z,40.23
2023-01-05T09:40:42.393Z,40.30
2023-01-05T09:43:19.549Z,40.37
2023-01-05T09:45:49.870Z,39.43
2023-01-05T09:48:20.452Z,38.77
2023-01-05T09:50:52.392Z,38.17
2023-01-05T09:53:29.562Z,38.67
2023-01-05T09:55:59.539Z,39.03
2023-01-05T09:58:35.767Z,39.50
2023-01-05T10:01:10.949Z,40.50
2023-01-05T10:06:35.475Z,39.17
2023-01-05T10:09:06.903Z,38.30
2023-01-05T10:11:58.497Z,38.13
2023-01-05T10:14:33.880Z,38.50
2023-01-05T10:17:38.988Z,38.00
2023-01-05T10:19:56.421Z,36.77
2023-01-05T10:22:39.099Z,36.00
2023-01-05T10:25:18.680Z,35.23
2023-01-05T10:27:56.909Z,34.33
2023-01-05T10:30:38.915Z,32.97
2023-01-05T10:33:39.657Z,32.60
2023-01-05T10:36:28.118Z,32.17
2023-01-05T10:39:16.610Z,32.33
2023-01-05T10:41:55.131Z,31.10
2023-01-05T10:44:42.232Z,31.53
2023-01-05T10:47:13.363Z,31.90
2023-01-05T10:49:43.794Z,31.03
2023-01-05T10:52:15.206Z,30.03
2023-01-05T10:54:47.419Z,29.90
2023-01-05T10:57:37.924Z,29.10
2023-01-05T11:00:11.226Z,29.27
2023-01-05T11:02:43.160Z,30.03
2023-01-05T11:05:32.219Z,30.23
2023-01-05T11:08:03.279Z,29.87
2023-01-05T11:10:34.072Z,28.27
2023-01-05T11:13:07.601Z,27.10
2023-01-05T11:15:43.258Z,27.57
2023-01-05T11:18:25.934Z,27.10
2023-01-05T11:21:11.262Z,26.93
2023-01-05T11:23:41.768Z,26.63
2023-01-05T11:26:22.604Z,26.27
2023-01-05T11:29:02.896Z,25.50
2023-01-05T11:31:36.943Z,24.93
2023-01-05T11:34:14.829Z,24.67
2023-01-05T11:36:43.819Z,23.83
2023-01-05T11:39:24.189Z,22.97
2023-01-05T11:41:52.664Z,22.80
2023-01-05T11:44:23.913Z,22.10
2023-01-05T11:46:52.194Z,21.50
2023-01-05T11:49:21.739Z,20.37
2023-01-05T11:51:49.863Z,19.67
2023-01-05T11:54:34.125Z,18.90
2023-01-05T11:57:16.183Z,20.93
2023-01-05T11:59:46.208Z,21.23
2023-01-05T12:02:44.547Z,21.13
2023-01-05T12:05:25.293Z,20.50
2023-01-05T12:07:59.639Z,20.13
2023-01-05T12:10:43.270Z,20.10
2023-01-05T12:13:29.525Z,20.73
2023-01-05T12:16:12.853Z,20.37
2023-01-05T12:19:07.658Z,20.50
2023-01-05T12:21:40.140Z,20.13
2023-01-05T12:24:31.693Z,18.50
2023-01-05T12:27:14.266Z,18.33
2023-01-05T12:36:34.497Z,17.43
2023-01-05T12:39:20.029Z,16.43
2023-01-05T12:42:05.469Z,16.63
2023-01-05T12:45:00.341Z,17.20
2023-01-05T12:47:52.586Z,29.27
2023-01-05T12:50:27.270Z,20.27
2023-01-05T12:53:03.664Z,18.77
2023-01-05T12:55:39.205Z,19.90
2023-01-05T12:58:14.785Z,20.30
2023-01-05T13:00:46.445Z,21.30
2023-01-05T13:03:25.368Z,21.47
2023-01-05T13:06:01.558Z,22.90
2023-01-05T13:08:38.531Z,25.27
2023-01-05T13:11:17.499Z,26.40
2023-01-05T13:13:49.937Z,29.10
2023-01-05T13:16:22.717Z,29.43
2023-01-05T13:18:56.761Z,32.33
2023-01-05T13:21:27.497Z,32.87
2023-01-05T13:23:58.424Z,32.83
2023-01-05T13:26:30.335Z,33.20
2023-01-05T13:29:02.768Z,33.53
2023-01-05T13:31:54.077Z,33.33
2023-01-05T13:34:42.755Z,33.67
2023-01-05T13:37:33.173Z,34.77
2023-01-05T13:40:18.462Z,23.97
2023-01-05T13:43:16.504Z,22.07
2023-01-05T13:46:14.747Z,22.80
2023-01-05T13:49:08.846Z,24.83
2023-01-05T13:52:00.218Z,27.23
2023-01-05T13:54:49.408Z,30.70
2023-01-05T13:57:23.133Z,34.00
2023-01-05T14:00:06.460Z,37.60
2023-01-05T14:02:42.270Z,39.90
2023-01-05T14:05:18.158Z,43.20
2023-01-05T14:07:46.496Z,44.93
2023-01-05T14:10:24.854Z,44.37
2023-01-05T14:12:55.258Z,45.93
2023-01-05T14:15:38.767Z,45.50
2023-01-05T14:18:08.344Z,46.37
2023-01-05T14:20:44.811Z,46.50
2023-01-05T14:23:50.316Z,45.87
2023-01-05T14:26:18.720Z,46.73
2023-01-05T14:28:49.294Z,47.27
2023-01-05T14:31:51.742Z,47.00
2023-01-05T14:34:24.398Z,47.70
2023-01-05T14:37:07.530Z,47.47
2023-01-05T14:39:45.189Z,47.00
2023-01-05T14:42:28.772Z,46.47
2023-01-05T14:45:01.445Z,46.90
2023-01-05T14:47:41.415Z,45.77
2023-01-05T14:50:29.824Z,45.27
2023-01-05T14:53:01.181Z,44.00
2023-01-05T14:55:40.092Z,42.43
2023-01-05T14:58:14.320Z,41.17
2023-01-05T15:00:49.033Z,39.33
2023-01-05T15:03:25.325Z,38.10
2023-01-05T15:05:59.705Z,37.67
2023-01-05T15:08:45.314Z,37.10
2023-01-05T15:11:39.148Z,36.20
2023-01-05T15:14:38.745Z,37.20
2023-01-05T15:17:45.449Z,36.10
2023-01-05T15:20:45.914Z,36.87
2023-01-05T15:23:36.272Z,37.30
2023-01-05T15:26:43.798Z,37.10
2023-01-05T15:29:36.452Z,37.27
2023-01-05T15:32:11.475Z,36.67
2023-01-05T15:34:45.893Z,35.70
2023-01-05T15:37:19.823Z,36.27
2023-01-05T15:39:49.918Z,35.60
2023-01-05T15:42:23.676Z,36.03
2023-01-05T15:44:54.683Z,36.07
2023-01-05T15:47:26.650Z,36.17
2023-01-05T15:49:58.151Z,36.00
2023-01-05T15:52:34.630Z,34.87
2023-01-05T15:55:05.488Z,35.63
2023-01-05T15:57:33.703Z,34.70
2023-01-05T16:00:01.850Z,34.60
2023-01-05T16:02:39.928Z,34.87
2023-01-05T16:05:17.467Z,34.17
2023-01-05T16:07:52.925Z,34.40
2023-01-05T16:10:23.963Z,33.97
2023-01-05T16:12:56.571Z,33.00
2023-01-05T16:15:26.236Z,32.63
2023-01-05T16:17:58.111Z,31.90
2023-01-05T16:20:27.471Z,30.13
2023-01-05T16:23:08.318Z,28.77
2023-01-05T16:25:41.480Z,26.53
2023-01-05T16:28:17.398Z,25.77
2023-01-05T16:30:47.252Z,24.30
2023-01-05T16:33:27.363Z,23.17
2023-01-05T16:36:08.679Z,21.80
2023-01-05T16:38:38.195Z,21.23
2023-01-05T16:41:21.852Z,21.43
2023-01-05T16:43:58.094Z,20.37
2023-01-05T16:46:39.119Z,20.47
2023-01-05T16:49:41.156Z,21.10
2023-01-05T16:52:24.998Z,22.17
2023-01-05T16:55:27.470Z,22.83
2023-01-05T16:57:56.737Z,24.20
2023-01-05T17:00:37.509Z,25.13
2023-01-05T17:03:29.121Z,27.30
2023-01-05T17:05:58.615Z,28.90
2023-01-05T17:08:31.866Z,31.33
2023-01-05T17:11:03.152Z,32.23
2023-01-05T17:13:38.874Z,33.03
2023-01-05T17:16:07.959Z,34.07
2023-01-05T17:18:36.350Z,33.37
2023-01-05T17:21:05.963Z,33.43
2023-01-05T17:23:36.641Z,32.80
2023-01-05T17:26:09.635Z,31.77
2023-01-05T17:28:39.263Z,31.70
2023-01-05T17:31:08.119Z,30.97
2023-01-05T17:33:36.364Z,30.83
2023-01-05T17:36:04.900Z,30.17
2023-01-05T17:38:33.085Z,30.07
2023-01-05T17:41:01.227Z,29.67
2023-01-05T17:43:30.759Z,29.47
2023-01-05T17:45:59.275Z,28.30
2023-01-05T17:48:27.386Z,27.20
2023-01-05T17:50:55.482Z,26.33
2023-01-05T17:53:23.521Z,25.60
2023-01-05T17:55:51.606Z,24.97
2023-01-05T17:58:19.711Z,24.93
2023-01-05T18:00:49.852Z,23.50
2023-01-05T18:03:22.423Z,23.23
2023-01-05T18:05:52.637Z,22.73
2023-01-05T18:08:22.135Z,23.57
2023-01-05T18:10:50.432Z,21.80
2023-01-05T18:13:21.482Z,22.50
2023-01-05T18:15:55.439Z,21.77
2023-01-05T18:18:24.831Z,22.13
2023-01-05T18:20:53.465Z,21.47
2023-01-05T18:23:24.457Z,20.33
2023-01-05T18:25:52.885Z,20.40
2023-01-05T18:28:21.018Z,19.87
2023-01-05T18:30:49.142Z,18.33
2023-01-05T18:33:18.717Z,19.10
2023-01-05T18:35:50.489Z,19.40
2023-01-05T18:38:18.807Z,19.67
2023-01-05T18:40:49.171Z,19.03
2023-01-05T18:43:17.376Z,19.87
2023-01-05T18:45:45.679Z,18.83
2023-01-05T18:48:13.866Z,17.40
2023-01-05T18:50:49.926Z,17.60
2023-01-05T18:53:18.496Z,17.80
2023-01-05T18:55:47.088Z,17.40
2023-01-05T18:58:16.175Z,17.37
2023-01-05T19:00:45.892Z,17.67
2023-01-05T19:03:14.051Z,17.37
2023-01-05T19:05:45.644Z,17.63
2023-01-05T19:08:14.900Z,18.37
2023-01-05T19:10:43.313Z,19.50
2023-01-05T19:13:11.463Z,18.00
2023-01-05T19:15:39.752Z,19.17
2023-01-05T19:18:07.916Z,19.53
2023-01-05T19:20:36.164Z,20.00
2023-01-05T19:23:05.729Z,20.27
2023-01-05T19:25:33.861Z,21.27
2023-01-05T19:28:02.556Z,20.60
2023-01-05T19:30:31.431Z,21.47
2023-01-05T19:33:01.163Z,20.73
2023-01-05T19:35:31.264Z,21.27
2023-01-05T19:38:00.726Z,21.20
2023-01-05T19:40:30.385Z,20.90
2023-01-05T19:43:08.749Z,20.63
2023-01-05T19:45:40.780Z,20.70
2023-01-05T21:55:14.312Z,9.00
2023-01-05T21:57:42.351Z,9.20
2023-01-05T22:00:11.832Z,9.33
2023-01-05T22:02:40.003Z,8.87
2023-01-05T22:05:08.973Z,9.53
2023-01-05T22:07:37.047Z,9.63
2023-01-05T22:10:07.655Z,9.73
2023-01-05T22:12:35.796Z,10.17
2023-01-05T22:15:04.261Z,9.90
